Hereford, AZ

3:38 PM MST on August 30, 2015 (GMT -0700)
APRSWXNET | | Change Station
CLOSE
Current Station
Personal Weather Station
Location: Sierra Vista, AZ
Elevation: 4603 ft
Nearby Weather Stations

Elev 4603 ft 31.46 °N, 110.23 °W | Updated 19 minutes ago

Mostly Cloudy
Mostly Cloudy
70 °F
Feels Like 70 °F
N
6
Wind Variable Wind from WSW
Gusts 9.0 mph

Today
High -- | Low -- °F
--% Chance of Precip.
Yesterday
High -- | Low -- °F
Precip. -- in
5:55 AM 6:47 PM
Full, 98% visible
Pressure 30.12 in
Visibility 8.0 miles
Clouds Scattered Clouds 8500 ft
Scattered Clouds 23000 ft
Dew Point 59 °F
Humidity 69%
Rainfall in
Snow Depth Not available.
UV 5 out of 12
Pollen 4.40 out of 12
Air Quality Not available.
Flu Activity Not available.
SPECI KFHU 302231Z AUTO 21006KT 8SM SCT085 SCT230 27/12 A3012 RMK AO2 LTG DSNT N AND E AND S-SW
Pressure 30.12 in
Visibility 8.0 miles
Clouds Scattered Clouds 8500 ft
Scattered Clouds 23000 ft
Dew Point 59 °F
Humidity 69%
Rainfall in
Snow Depth Not available.
UV 5 out of 12
Pollen 4.40 out of 12
Air Quality Not available.
Flu Activity Not available.
SPECI KFHU 302231Z AUTO 21006KT 8SM SCT085 SCT230 27/12 A3012 RMK AO2 LTG DSNT N AND E AND S-SW
Nowcast | as of 3:18 PM MST on August 30, 2015

Showers and thunderstorms will continue to develop and increase in coverage through the late-afternoon hours. Additional storms are expected to form across parts of Pinal and east-central Pima counties. Storm motions are variable and less than 10 mph. As a result...heavy rainfall with amounts of one half to one inch are possible along with wind gusts to near 50 mph in the stronger storms.

×

10-Day Weather Forecast

×

Almanac

Astronomy

Aug. 30, 2015 Rise Set
Actual Time
Civil Twilight
Nautical Twilight
Astronomical Twilight
Moon
Length of Visible Light
Length of Day
Tomorrow will be .
, % of the Moon is Illuminated

Today's Extremes

State Highs State Lows

Community

WunderPhotos

Upload Photos

1,851,074 photos uploaded!

WunderBlogs® & News

Nearby

Air Quality

  Air Quality AQ Index Pollutant
Not available.

Snow Depth

Station Depth Elevation

Earthquake Activity

City Distance Mag. Time & Date
Minimum magnitude displayed is 2.5.

Coastal Water Temperatures

Place Temperature

Stations

Nearby Weather Stations

Station Location Temp. Windchill Dew Point Humidity Wind Precip. Elev Updated Type